This is the latest recevied weather packets stored in our database for station/object IU1TLK-10. If no packets are shown the sender has not sent any weather packets the latest 10 day(s).
| Time | Temp. | Humidity | Pressure | Rain* | Wind** | Luminosity | Snow |
|---|---|---|---|---|---|---|---|
| 1777502903 | 14.44° C | 60% | 1020.1 hPa | - | - | - | - |
| 1777501103 | 15° C | 60% | 1019.9 hPa | - | - | - | - |
| 1777499303 | 15° C | 59% | 1019.5 hPa | - | - | - | - |
| 1777497502 | 15.56° C | 57% | 1019.1 hPa | - | - | - | - |
| 1777495706 | 15.56° C | 54% | 1019 hPa | - | - | - | - |
| 1777493905 | 16.11° C | 52% | 1018.7 hPa | - | - | - | - |
| 1777492105 | 16.11° C | 50% | 1018.5 hPa | - | - | - | - |
| 1777490304 | 16.67° C | 50% | 1018.1 hPa | - | - | - | - |
| 1777488504 | 16.67° C | 49% | 1017.8 hPa | - | - | - | - |
| 1777486704 | 17.22° C | 47% | 1017.6 hPa | - | - | - | - |
| 1777484904 | 17.22° C | 46% | 1017.3 hPa | - | - | - | - |
| 1777483104 | 17.22° C | 46% | 1017.2 hPa | - | - | - | - |
| 1777481304 | 17.78° C | 45% | 1017.2 hPa | - | - | - | - |
| 1777479503 | 17.78° C | 43% | 1017.1 hPa | - | - | - | - |
| 1777477703 | 18.33° C | 43% | 1017.4 hPa | - | - | - | - |
| 1777475903 | 18.33° C | 42% | 1017.4 hPa | - | - | - | - |
| 1777474104 | 18.33° C | 44% | 1017.7 hPa | - | - | - | - |
| 1777472303 | 20° C | 41% | 1018 hPa | - | - | - | - |
| 1777470503 | 20° C | 41% | 1018.4 hPa | - | - | - | - |
| 1777468703 | 19.44° C | 41% | 1018.5 hPa | - | - | - | - |
| 1777466903 | 19.44° C | 43% | 1018.8 hPa | - | - | - | - |
| 1777465103 | 18.89° C | 44% | 1019 hPa | - | - | - | - |
| 1777463302 | 19.44° C | 45% | 1019.3 hPa | - | - | - | - |
| 1777461502 | 18.89° C | 47% | 1019.4 hPa | - | - | - | - |
| 1777459701 | 18.33° C | 49% | 1019.5 hPa | - | - | - | - |
* Rain since midnight (hover to see other rain measurements)
** Current wind speed in m/s (hover to see current wind gust speed)